Time;durP1;ratioP1;P1;durP2;ratioP2;P2;SDS_P1;SDS_P2;PMS_P1;PMS_P2;Temp;Humidity;BMP_temperature;BMP_pressure;BME280_temperature;BME280_humidity;BME280_pressure;Samples;Min_cycle;Max_cycle;Signal;HPM_P1;HPM_P2
2022/03/23 00:01:54;;;;;;;;;;;9.40;99.90;;;;;;5158260;27;20405;-72
2022/03/23 00:04:19;;;;;;;;;;;8.70;99.90;;;;;;5139695;27;20297;-71
2022/03/23 00:06:45;;;;;;;;;;;8.60;99.90;;;;;;5157843;27;19974;-72
2022/03/23 00:09:12;;;;;;;;;;;9.10;99.90;;;;;;5157937;27;19977;-72
2022/03/23 00:11:38;;;;;;;;;;;8.40;99.90;;;;;;5157928;27;20404;-72
2022/03/23 00:14:06;;;;;;;;;;;8.40;99.90;;;;;;5158115;27;19923;-72
2022/03/23 00:16:34;;;;;;;;;;;8.90;99.90;;;;;;5157964;27;19930;-70
2022/03/23 00:18:59;;;;;;;;;;;8.30;99.90;;;;;;5157973;27;19923;-72
2022/03/23 00:21:25;;;;;;;;;;;9.20;99.90;;;;;;5139453;27;20298;-72
2022/03/23 00:23:50;;;;;;;;;;;8.20;99.90;;;;;;5157753;27;19927;-71
2022/03/23 00:26:16;;;;;;;;;;;8.40;99.90;;;;;;5139007;27;20021;-71
2022/03/23 00:28:42;;;;;;;;;;;8.20;99.90;;;;;;5139393;27;19923;-71
2022/03/23 00:31:09;;;;;;;;;;;8.90;99.90;;;;;;5157872;27;19930;-71
2022/03/23 00:33:35;;;;;;;;;;;8.20;99.90;;;;;;5157621;27;19923;-70
2022/03/23 00:36:01;;;;;;;;;;;8.30;99.90;;;;;;5157507;27;19930;-71
2022/03/23 00:38:26;;;;;;;;;;;8.40;99.90;;;;;;5157321;27;19946;-71
2022/03/23 00:40:52;;;;;;;;;;;8.20;99.90;;;;;;5157309;27;19923;-71
2022/03/23 00:43:17;;;;;;;;;;;8.10;99.90;;;;;;5157477;27;19923;-71
2022/03/23 00:45:43;;;;;;;;;;;8.10;99.90;;;;;;5139229;27;20378;-71
2022/03/23 00:48:08;;;;;;;;;;;8.50;99.90;;;;;;5157379;27;19923;-72
2022/03/23 00:50:34;;;;;;;;;;;8.00;99.90;;;;;;5138489;27;19923;-72
2022/03/23 00:53:00;;;;;;;;;;;8.30;99.90;;;;;;5157201;27;20014;-72
2022/03/23 00:55:25;;;;;;;;;;;7.90;99.90;;;;;;5157019;27;20023;-72
2022/03/23 00:57:51;;;;;;;;;;;7.90;99.90;;;;;;5156971;27;19930;-71
2022/03/23 01:00:20;;;;;;;;;;;7.90;99.90;;;;;;5138684;27;20363;-71
2022/03/23 01:02:46;;;;;;;;;;;7.80;99.90;;;;;;5157156;27;19923;-72
2022/03/23 01:05:12;;;;;;;;;;;8.60;99.90;;;;;;5157033;27;19923;-72
2022/03/23 01:07:39;;;;;;;;;;;7.90;99.90;;;;;;5156693;27;20380;-71
2022/03/23 01:10:05;;;;;;;;;;;7.90;99.90;;;;;;5156564;27;20397;-72
2022/03/23 01:12:31;;;;;;;;;;;7.90;99.90;;;;;;5156377;27;19923;-71
2022/03/23 01:14:57;;;;;;;;;;;7.90;99.90;;;;;;5138247;27;19923;-70
2022/03/23 01:17:23;;;;;;;;;;;7.90;99.90;;;;;;5156399;27;20433;-71
2022/03/23 01:19:48;;;;;;;;;;;7.90;99.90;;;;;;5155815;27;19984;-72
2022/03/23 01:22:14;;;;;;;;;;;7.90;99.90;;;;;;5156399;27;20305;-72
2022/03/23 01:24:40;;;;;;;;;;;7.70;99.90;;;;;;5156269;27;19930;-71
2022/03/23 01:27:05;;;;;;;;;;;7.70;99.90;;;;;;5156182;27;19923;-71
2022/03/23 01:29:31;;;;;;;;;;;7.40;99.90;;;;;;5156382;27;20327;-71
2022/03/23 01:31:56;;;;;;;;;;;7.50;99.90;;;;;;5156262;27;20016;-71
2022/03/23 01:34:22;;;;;;;;;;;8.00;99.90;;;;;;5156286;27;20282;-71
2022/03/23 01:36:48;;;;;;;;;;;7.20;99.90;;;;;;5156151;27;19923;-71
2022/03/23 01:39:13;;;;;;;;;;;7.50;99.90;;;;;;5137252;27;19923;-71
2022/03/23 01:41:39;;;;;;;;;;;7.10;99.90;;;;;;5155853;27;19927;-71
2022/03/23 01:44:13;;;;;;;;;;;6.00;99.90;;;;;;5155562;27;19930;-70
2022/03/23 01:46:57;;;;;;;;;;;7.00;99.90;;;;;;5155979;27;19990;-71
2022/03/23 01:49:22;;;;;;;;;;;7.70;99.90;;;;;;5137646;27;19923;-71
2022/03/23 01:51:48;;;;;;;;;;;7.60;99.90;;;;;;5155759;27;20448;-72
2022/03/23 01:54:14;;;;;;;;;;;6.90;99.90;;;;;;5155679;27;20006;-71
2022/03/23 01:56:40;;;;;;;;;;;6.90;99.90;;;;;;5119939;27;19981;-72
2022/03/23 01:59:06;;;;;;;;;;;6.90;99.90;;;;;;5155863;27;19923;-72
2022/03/23 02:01:31;;;;;;;;;;;6.90;99.90;;;;;;5155601;27;19976;-71
2022/03/23 02:03:57;;;;;;;;;;;7.00;99.90;;;;;;5155633;27;19971;-71
2022/03/23 02:06:23;;;;;;;;;;;6.90;99.90;;;;;;5155638;27;19923;-71
2022/03/23 02:08:48;;;;;;;;;;;8.00;99.90;;;;;;5155454;27;20394;-71
2022/03/23 02:11:14;;;;;;;;;;;7.00;99.90;;;;;;5155359;27;19929;-71
2022/03/23 02:13:40;;;;;;;;;;;7.30;99.90;;;;;;5155541;27;19923;-71
2022/03/23 02:16:05;;;;;;;;;;;7.40;99.90;;;;;;5136919;27;19967;-71
2022/03/23 02:18:31;;;;;;;;;;;7.70;99.90;;;;;;5155516;27;19923;-71
2022/03/23 02:20:57;;;;;;;;;;;7.00;99.90;;;;;;5155325;27;19934;-72
2022/03/23 02:23:22;;;;;;;;;;;7.10;99.90;;;;;;5155284;27;19927;-71
2022/03/23 02:25:49;;;;;;;;;;;8.30;99.90;;;;;;5137235;27;19929;-72
2022/03/23 02:28:15;;;;;;;;;;;7.20;99.90;;;;;;5155369;27;20009;-71
2022/03/23 02:30:41;;;;;;;;;;;5.60;99.90;;;;;;5137358;27;20022;-71
2022/03/23 02:33:06;;;;;;;;;;;7.20;99.90;;;;;;5137287;27;19949;-71
2022/03/23 02:35:32;;;;;;;;;;;7.20;99.90;;;;;;5137051;27;19974;-70
2022/03/23 02:37:57;;;;;;;;;;;7.20;99.90;;;;;;5155366;27;19983;-71
2022/03/23 02:40:23;;;;;;;;;;;7.20;99.90;;;;;;5154993;27;19923;-71
2022/03/23 02:42:49;;;;;;;;;;;7.10;99.90;;;;;;5155087;27;19923;-70
2022/03/23 02:45:15;;;;;;;;;;;7.90;99.90;;;;;;5155709;27;19975;-71
2022/03/23 02:47:41;;;;;;;;;;;7.10;99.90;;;;;;5155475;27;19930;-72
2022/03/23 02:50:07;;;;;;;;;;;7.10;99.90;;;;;;5155411;27;20369;-71
2022/03/23 02:52:33;;;;;;;;;;;7.10;99.90;;;;;;5155234;27;19933;-71
2022/03/23 03:03:27;;;;;;;;;;;6.70;99.90;;;;;;5155079;27;19971;-71
2022/03/23 03:05:53;;;;;;;;;;;7.30;99.90;;;;;;5155139;27;20009;-71
2022/03/23 03:11:03;;;;;;;;;;;6.30;99.90;;;;;;5155137;27;19930;-71
2022/03/23 03:13:29;;;;;;;;;;;7.00;99.90;;;;;;5155033;27;19923;-71
2022/03/23 03:15:59;;;;;;;;;;;6.10;99.90;;;;;;5154835;27;20289;-72
2022/03/23 03:18:25;;;;;;;;;;;6.20;99.90;;;;;;5136740;27;19923;-71
2022/03/23 03:20:50;;;;;;;;;;;6.90;99.90;;;;;;5136557;27;19923;-72
2022/03/23 03:23:16;;;;;;;;;;;6.20;99.90;;;;;;5155128;27;19949;-71
2022/03/23 03:25:42;;;;;;;;;;;7.50;99.90;;;;;;5136564;27;20025;-71
2022/03/23 03:28:07;;;;;;;;;;;6.20;99.90;;;;;;5154941;27;19923;-72
2022/03/23 03:30:33;;;;;;;;;;;6.20;99.90;;;;;;5136630;27;19976;-71
2022/03/23 03:32:58;;;;;;;;;;;6.30;99.90;;;;;;5154756;27;19923;-71
2022/03/23 03:35:24;;;;;;;;;;;7.60;99.90;;;;;;5136168;27;19927;-71
2022/03/23 03:37:49;;;;;;;;;;;6.20;99.90;;;;;;5155007;27;20014;-71
2022/03/23 03:40:15;;;;;;;;;;;6.30;99.90;;;;;;5154534;27;19983;-72
2022/03/23 03:42:40;;;;;;;;;;;6.30;99.90;;;;;;5157289;27;19924;-71
2022/03/23 03:45:06;;;;;;;;;;;7.10;99.90;;;;;;5158561;27;19922;-71
2022/03/23 03:47:32;;;;;;;;;;;6.30;99.90;;;;;;5158421;27;19930;-70
2022/03/23 03:49:58;;;;;;;;;;;7.40;99.90;;;;;;5140093;27;20017;-71
2022/03/23 03:52:23;;;;;;;;;;;6.30;99.90;;;;;;5140351;27;19989;-71
2022/03/23 03:54:49;;;;;;;;;;;6.40;99.90;;;;;;5158435;27;20004;-71
2022/03/23 03:57:14;;;;;;;;;;;6.70;99.90;;;;;;5158344;27;19930;-71
2022/03/23 03:59:40;;;;;;;;;;;6.30;99.90;;;;;;5158414;27;19974;-71
2022/03/23 04:02:06;;;;;;;;;;;6.60;99.90;;;;;;5158196;27;19924;-71
2022/03/23 04:04:31;;;;;;;;;;;6.30;99.90;;;;;;5158079;27;19923;-70
2022/03/23 04:06:57;;;;;;;;;;;7.50;99.90;;;;;;5158344;27;20304;-71
2022/03/23 04:09:23;;;;;;;;;;;6.60;99.90;;;;;;5158290;27;20021;-71
2022/03/23 04:11:48;;;;;;;;;;;6.50;99.90;;;;;;5158138;27;19930;-70
2022/03/23 04:14:15;;;;;;;;;;;6.70;99.90;;;;;;5158050;27;19970;-71
2022/03/23 04:16:41;;;;;;;;;;;6.70;99.90;;;;;;5157845;27;19930;-70
2022/03/23 04:19:06;;;;;;;;;;;7.10;99.90;;;;;;5157917;27;19927;-72
2022/03/23 04:21:35;;;;;;;;;;;6.20;99.90;;;;;;5138714;27;19926;-71
2022/03/23 04:24:01;;;;;;;;;;;6.20;99.90;;;;;;5157890;27;20021;-71
2022/03/23 04:26:26;;;;;;;;;;;6.50;99.90;;;;;;5139714;27;19978;-71
2022/03/23 04:28:52;;;;;;;;;;;7.00;99.90;;;;;;5139600;27;19923;-72
2022/03/23 04:31:18;;;;;;;;;;;6.10;99.90;;;;;;5139148;27;19923;-70
2022/03/23 04:33:44;;;;;;;;;;;6.20;99.90;;;;;;5139115;27;19923;-72
2022/03/23 04:36:11;;;;;;;;;;;6.00;99.90;;;;;;5138960;27;19923;-72
2022/03/23 04:38:36;;;;;;;;;;;6.10;99.90;;;;;;5157454;27;19923;-72
2022/03/23 04:41:04;;;;;;;;;;;7.00;99.90;;;;;;5157612;27;20460;-71
2022/03/23 04:43:30;;;;;;;;;;;6.00;99.90;;;;;;5157428;27;19930;-70
2022/03/23 04:45:55;;;;;;;;;;;5.90;99.90;;;;;;5139117;27;19971;-72
2022/03/23 04:48:21;;;;;;;;;;;5.90;99.90;;;;;;5139062;27;19930;-71
2022/03/23 04:50:48;;;;;;;;;;;6.80;99.90;;;;;;5157465;27;19927;-71
2022/03/23 04:53:14;;;;;;;;;;;6.40;99.90;;;;;;5156301;27;19967;-72
2022/03/23 04:55:39;;;;;;;;;;;5.70;99.90;;;;;;5157208;27;19923;-71
2022/03/23 04:58:05;;;;;;;;;;;5.70;99.90;;;;;;5138846;27;19981;-71
2022/03/23 05:00:31;;;;;;;;;;;5.80;99.90;;;;;;5157146;27;19923;-70
2022/03/23 05:02:56;;;;;;;;;;;5.80;99.90;;;;;;5157041;27;20018;-71
2022/03/23 05:05:22;;;;;;;;;;;7.30;99.90;;;;;;5138784;27;19946;-71
2022/03/23 05:07:48;;;;;;;;;;;5.70;99.90;;;;;;5138411;27;19927;-71
2022/03/23 05:10:14;;;;;;;;;;;5.80;99.90;;;;;;5138842;27;20388;-71
2022/03/23 05:12:41;;;;;;;;;;;6.60;99.90;;;;;;5156968;27;19923;-70
2022/03/23 05:15:08;;;;;;;;;;;5.80;99.90;;;;;;5156817;27;19923;-70
2022/03/23 05:17:34;;;;;;;;;;;5.80;99.90;;;;;;5138426;27;19931;-71
2022/03/23 05:20:01;;;;;;;;;;;5.80;99.90;;;;;;5138467;27;19923;-71
2022/03/23 05:22:27;;;;;;;;;;;5.80;99.90;;;;;;5156531;27;19927;-71
2022/03/23 05:24:53;;;;;;;;;;;5.80;99.90;;;;;;5138303;27;19923;-72
2022/03/23 05:27:19;;;;;;;;;;;5.80;99.90;;;;;;5156697;27;20010;-71
2022/03/23 05:29:44;;;;;;;;;;;6.20;99.90;;;;;;5138388;27;19923;-71
2022/03/23 05:32:16;;;;;;;;;;;6.00;99.90;;;;;;5156455;27;19990;-70
2022/03/23 05:34:48;;;;;;;;;;;6.90;99.90;;;;;;5137830;27;19927;-71
2022/03/23 05:37:14;;;;;;;;;;;5.80;99.90;;;;;;5156576;27;19923;-71
2022/03/23 05:39:40;;;;;;;;;;;5.80;99.90;;;;;;5137915;27;19923;-71
2022/03/23 05:42:07;;;;;;;;;;;5.90;99.90;;;;;;5156292;27;19931;-70
2022/03/23 05:44:33;;;;;;;;;;;5.90;99.90;;;;;;5156121;27;20390;-71
2022/03/23 05:46:58;;;;;;;;;;;6.70;99.90;;;;;;5137656;27;19930;-70
2022/03/23 05:49:24;;;;;;;;;;;5.90;99.90;;;;;;5155997;27;19923;-71
2022/03/23 05:51:49;;;;;;;;;;;5.90;99.90;;;;;;5155937;27;19930;-71
2022/03/23 05:54:16;;;;;;;;;;;5.90;99.90;;;;;;5137697;27;19929;-71
2022/03/23 05:56:41;;;;;;;;;;;6.40;99.90;;;;;;5156015;27;19923;-72
2022/03/23 05:59:07;;;;;;;;;;;6.50;99.90;;;;;;5137481;27;19972;-70
2022/03/23 06:01:32;;;;;;;;;;;5.90;99.90;;;;;;5155816;27;19923;-71
2022/03/23 06:03:58;;;;;;;;;;;5.90;99.90;;;;;;5155768;27;19930;-70
2022/03/23 06:06:24;;;;;;;;;;;6.70;99.90;;;;;;5120195;27;19927;-71
2022/03/23 06:08:49;;;;;;;;;;;5.90;99.90;;;;;;5155909;27;19966;-73
2022/03/23 06:11:15;;;;;;;;;;;4.50;99.90;;;;;;5155912;27;20271;-71
2022/03/23 06:13:40;;;;;;;;;;;5.90;99.90;;;;;;5155808;27;19997;-72
2022/03/23 06:16:06;;;;;;;;;;;5.90;99.90;;;;;;5155632;27;19931;-70
2022/03/23 06:18:32;;;;;;;;;;;5.90;99.90;;;;;;5155700;27;19923;-70
2022/03/23 06:20:58;;;;;;;;;;;6.00;99.90;;;;;;5155843;27;19987;-72
2022/03/23 06:23:25;;;;;;;;;;;6.50;99.90;;;;;;5137229;27;19927;-70
2022/03/23 06:25:50;;;;;;;;;;;6.30;99.90;;;;;;5155706;27;19930;-72
2022/03/23 06:28:16;;;;;;;;;;;6.10;99.90;;;;;;5155676;27;19923;-71
2022/03/23 06:30:42;;;;;;;;;;;5.70;99.90;;;;;;5155492;27;19930;-71
2022/03/23 06:33:08;;;;;;;;;;;6.20;99.90;;;;;;5155408;27;19930;-70
2022/03/23 06:35:33;;;;;;;;;;;7.30;99.90;;;;;;5136392;27;20378;-72
2022/03/23 06:37:59;;;;;;;;;;;6.30;99.90;;;;;;5155279;27;19962;-71
2022/03/23 06:40:24;;;;;;;;;;;4.80;99.90;;;;;;5155597;27;19939;-71
2022/03/23 06:42:50;;;;;;;;;;;6.40;99.90;;;;;;5155516;27;19923;-71
2022/03/23 06:45:16;;;;;;;;;;;6.50;99.90;;;;;;5155462;27;19968;-70
2022/03/23 06:47:41;;;;;;;;;;;7.10;99.90;;;;;;5137148;27;20308;-70
2022/03/23 06:50:10;;;;;;;;;;;7.70;99.90;;;;;;5155425;27;19927;-70
2022/03/23 06:52:35;;;;;;;;;;;6.60;99.90;;;;;;5155143;27;20374;-70
2022/03/23 06:55:01;;;;;;;;;;;7.40;99.90;;;;;;5155440;27;19930;-69
2022/03/23 06:57:26;;;;;;;;;;;8.30;99.90;;;;;;5137228;27;20397;-71
2022/03/23 06:59:52;;;;;;;;;;;6.80;99.90;;;;;;5137068;27;19930;-72
2022/03/23 07:02:17;;;;;;;;;;;7.50;99.90;;;;;;5155138;27;19930;-70
2022/03/23 07:04:43;;;;;;;;;;;6.90;99.90;;;;;;5155120;27;19930;-71
2022/03/23 07:07:09;;;;;;;;;;;7.00;99.90;;;;;;5155177;27;19923;-70
2022/03/23 07:09:38;;;;;;;;;;;7.60;99.90;;;;;;5154962;27;19923;-70
2022/03/23 07:12:08;;;;;;;;;;;7.10;99.90;;;;;;5155219;27;19976;-71
2022/03/23 07:14:34;;;;;;;;;;;7.20;99.90;;;;;;5155279;27;19927;-70
2022/03/23 07:17:00;;;;;;;;;;;8.10;99.90;;;;;;5137259;27;19966;-72
2022/03/23 07:19:26;;;;;;;;;;;7.80;99.90;;;;;;5159082;27;19966;-71
2022/03/23 07:21:51;;;;;;;;;;;7.50;99.90;;;;;;5158975;27;20026;-70
2022/03/23 07:24:17;;;;;;;;;;;8.40;99.90;;;;;;5158877;27;20377;-72
2022/03/23 07:26:43;;;;;;;;;;;7.50;99.90;;;;;;5159122;27;19983;-71
2022/03/23 07:29:09;;;;;;;;;;;7.60;99.90;;;;;;5157942;27;20323;-71
2022/03/23 07:31:35;;;;;;;;;;;7.60;99.90;;;;;;5158767;27;19924;-71
2022/03/23 07:34:02;;;;;;;;;;;7.70;99.90;;;;;;5158683;27;19923;-71
2022/03/23 07:36:28;;;;;;;;;;;7.80;99.90;;;;;;5153032;27;19931;-71
2022/03/23 07:38:53;;;;;;;;;;;7.80;99.90;;;;;;5117248;28;20026;-70
2022/03/23 07:41:19;;;;;;;;;;;7.90;99.90;;;;;;5117440;28;19977;-70
2022/03/23 07:43:45;;;;;;;;;;;8.60;99.90;;;;;;5117301;28;19924;-71
2022/03/23 07:46:10;;;;;;;;;;;8.00;99.90;;;;;;5099107;28;19924;-71
2022/03/23 07:48:36;;;;;;;;;;;8.10;99.90;;;;;;5117246;28;19924;-71
2022/03/23 07:51:02;;;;;;;;;;;8.20;99.90;;;;;;5116945;28;19931;-71
2022/03/23 07:53:27;;;;;;;;;;;9.60;99.90;;;;;;5117013;28;19927;-71
2022/03/23 07:55:54;;;;;;;;;;;9.00;99.90;;;;;;5117201;28;20332;-71
2022/03/23 07:58:20;;;;;;;;;;;8.40;99.90;;;;;;5117019;28;19976;-72
2022/03/23 08:00:57;;;;;;;;;;;8.70;99.90;;;;;;5116976;28;19923;-73
2022/03/23 08:03:23;;;;;;;;;;;8.60;99.90;;;;;;5116958;28;19924;-72
2022/03/23 08:05:49;;;;;;;;;;;8.60;99.90;;;;;;5116697;28;19984;-71
2022/03/23 08:08:14;;;;;;;;;;;9.60;99.90;;;;;;5116706;28;19974;-71
2022/03/23 08:10:41;;;;;;;;;;;9.30;99.90;;;;;;5132923;27;19927;-71
2022/03/23 08:13:08;;;;;;;;;;;8.90;99.90;;;;;;5116929;28;19931;-72
2022/03/23 08:15:34;;;;;;;;;;;9.00;99.90;;;;;;5116679;28;19928;-72
2022/03/23 08:18:00;;;;;;;;;;;9.10;99.90;;;;;;5116571;28;19923;-72
2022/03/23 08:20:38;;;;;;;;;;;9.20;99.90;;;;;;5098461;28;19931;-70
2022/03/23 08:23:07;;;;;;;;;;;9.30;99.90;;;;;;5116414;28;19924;-70
2022/03/23 08:25:34;;;;;;;;;;;9.50;99.90;;;;;;5132851;27;19924;-70
2022/03/23 08:28:01;;;;;;;;;;;9.40;99.90;;;;;;5098295;28;19959;-71
2022/03/23 08:30:26;;;;;;;;;;;9.50;99.90;;;;;;5132628;27;19966;-71
2022/03/23 08:32:52;;;;;;;;;;;9.60;99.90;;;;;;5116282;28;20365;-70
2022/03/23 08:35:18;;;;;;;;;;;9.70;99.90;;;;;;5115965;28;19931;-70
2022/03/23 08:37:43;;;;;;;;;;;9.90;99.90;;;;;;5116188;28;19930;-72
2022/03/23 08:40:09;;;;;;;;;;;10.00;99.90;;;;;;5097500;28;20370;-71
2022/03/23 08:42:35;;;;;;;;;;;10.00;99.90;;;;;;5116430;28;19931;-70
2022/03/23 08:45:01;;;;;;;;;;;10.20;99.90;;;;;;5116163;28;20197;-71
2022/03/23 08:47:27;;;;;;;;;;;10.20;99.90;;;;;;5097875;28;20021;-71
2022/03/23 08:49:53;;;;;;;;;;;10.30;99.90;;;;;;5116141;28;19998;-71
2022/03/23 08:52:19;;;;;;;;;;;10.50;99.90;;;;;;5115878;28;19924;-71
2022/03/23 08:54:44;;;;;;;;;;;10.60;99.90;;;;;;5116052;28;19930;-72
2022/03/23 08:57:10;;;;;;;;;;;10.60;99.90;;;;;;5097905;28;19930;-71
2022/03/23 08:59:35;;;;;;;;;;;10.70;99.90;;;;;;5097581;28;19973;-71
2022/03/23 09:02:01;;;;;;;;;;;10.80;99.90;;;;;;5115676;28;20364;-71
2022/03/23 09:04:27;;;;;;;;;;;10.90;99.90;;;;;;5097537;28;19927;-70
2022/03/23 09:06:52;;;;;;;;;;;11.10;99.90;;;;;;5115675;28;19931;-71
2022/03/23 09:09:18;;;;;;;;;;;11.20;99.90;;;;;;5097592;28;19980;-70
2022/03/23 09:11:43;;;;;;;;;;;11.40;99.90;;;;;;5115757;28;19931;-71
2022/03/23 09:14:09;;;;;;;;;;;11.30;99.90;;;;;;5115698;28;19952;-74
2022/03/23 09:16:35;;;;;;;;;;;11.50;99.90;;;;;;5097173;28;19924;-72
2022/03/23 09:19:02;;;;;;;;;;;11.60;99.90;;;;;;5115472;28;20065;-71
2022/03/23 09:21:27;;;;;;;;;;;11.70;99.90;;;;;;5115329;28;19927;-71
2022/03/23 09:23:53;;;;;;;;;;;12.20;99.90;;;;;;5115326;28;19924;-71
2022/03/23 09:26:19;;;;;;;;;;;12.00;99.90;;;;;;5115444;28;20286;-71
2022/03/23 09:28:44;;;;;;;;;;;12.10;99.90;;;;;;5115240;28;20022;-72
2022/03/23 09:31:13;;;;;;;;;;;12.10;99.90;;;;;;5115329;28;19928;-70
2022/03/23 09:33:39;;;;;;;;;;;12.20;97.00;;;;;;5097354;28;19931;-71
2022/03/23 09:36:05;;;;;;;;;;;12.30;99.90;;;;;;5097025;28;20293;-71
2022/03/23 09:38:30;;;;;;;;;;;12.40;99.10;;;;;;5114680;28;19923;-72
2022/03/23 09:40:56;;;;;;;;;;;12.50;99.90;;;;;;5129315;27;19958;-70
2022/03/23 09:43:23;;;;;;;;;;;12.60;99.90;;;;;;5137814;27;19929;-73
2022/03/23 09:45:51;;;;;;;;;;;12.70;95.70;;;;;;5156373;27;19968;-71
2022/03/23 09:48:20;;;;;;;;;;;12.80;91.70;;;;;;5156080;27;19923;-71
2022/03/23 09:50:47;;;;;;;;;;;12.90;94.00;;;;;;5137980;27;19923;-71
2022/03/23 09:53:13;;;;;;;;;;;13.00;68.60;;;;;;5155969;27;19923;-71
2022/03/23 09:55:39;;;;;;;;;;;13.20;76.50;;;;;;5137719;27;19975;-71
2022/03/23 09:58:06;;;;;;;;;;;13.30;87.90;;;;;;5137831;27;19930;-71
2022/03/23 10:00:37;;;;;;;;;;;13.30;88.60;;;;;;5156063;27;19974;-71
2022/03/23 10:03:09;;;;;;;;;;;13.40;80.50;;;;;;5155785;27;19923;-72
2022/03/23 10:05:38;;;;;;;;;;;13.50;88.60;;;;;;5137645;27;19946;-72
2022/03/23 10:08:16;;;;;;;;;;;13.60;78.60;;;;;;5137413;27;19930;-71
2022/03/23 10:11:14;;;;;;;;;;;13.80;74.60;;;;;;5155850;27;19923;-71
2022/03/23 10:13:58;;;;;;;;;;;13.90;61.00;;;;;;5155430;27;19923;-73
2022/03/23 10:16:43;;;;;;;;;;;14.00;70.70;;;;;;5136467;27;19971;-71
2022/03/23 10:19:08;;;;;;;;;;;14.10;71.30;;;;;;5137606;27;19930;-72
2022/03/23 10:21:35;;;;;;;;;;;14.20;70.90;;;;;;5155705;27;19923;-71
2022/03/23 10:24:00;;;;;;;;;;;14.40;65.50;;;;;;5155638;27;19923;-72
2022/03/23 10:26:27;;;;;;;;;;;14.50;65.20;;;;;;5155477;27;20301;-71
2022/03/23 10:28:52;;;;;;;;;;;14.60;58.40;;;;;;5155387;27;19930;-72
2022/03/23 10:31:33;;;;;;;;;;;14.80;65.60;;;;;;5155375;27;20290;-73
2022/03/23 10:34:08;;;;;;;;;;;14.80;56.00;;;;;;5155509;27;19930;-71
2022/03/23 10:36:55;;;;;;;;;;;15.00;54.80;;;;;;5155439;27;19997;-71
2022/03/23 10:39:30;;;;;;;;;;;15.10;63.70;;;;;;5155067;27;19978;-71
2022/03/23 10:42:15;;;;;;;;;;;15.20;55.90;;;;;;5155487;27;19927;-73
2022/03/23 10:44:41;;;;;;;;;;;15.30;58.30;;;;;;5155367;27;19923;-71
2022/03/23 10:47:08;;;;;;;;;;;15.50;52.10;;;;;;5137175;27;19978;-72
2022/03/23 10:49:37;;;;;;;;;;;15.60;59.60;;;;;;5155277;27;20323;-71
2022/03/23 10:52:08;;;;;;;;;;;15.70;53.90;;;;;;5138282;27;19976;-71
2022/03/23 10:54:34;;;;;;;;;;;15.80;59.90;;;;;;5159719;27;19980;-71
2022/03/23 10:57:00;;;;;;;;;;;15.90;54.30;;;;;;5159582;27;19927;-72
2022/03/23 10:59:26;;;;;;;;;;;15.90;48.10;;;;;;5159362;27;20382;-72
2022/03/23 11:02:01;;;;;;;;;;;16.00;50.90;;;;;;5159427;27;19966;-72
2022/03/23 11:04:29;;;;;;;;;;;16.10;53.00;;;;;;5159378;27;20366;-71
2022/03/23 11:06:56;;;;;;;;;;;16.20;48.60;;;;;;5159333;27;19927;-72
2022/03/23 11:18:03;;;;;;;;;;;16.50;52.40;;;;;;5159172;27;20305;-72
2022/03/23 11:20:41;;;;;;;;;;;16.60;50.70;;;;;;5159077;27;19923;-73
2022/03/23 11:23:23;;;;;;;;;;;16.60;45.80;;;;;;5140670;27;19927;-72
2022/03/23 11:25:53;;;;;;;;;;;16.60;49.90;;;;;;5140607;27;19930;-72
2022/03/23 11:28:19;;;;;;;;;;;16.70;48.90;;;;;;5158885;27;19923;-73
2022/03/23 11:30:45;;;;;;;;;;;16.80;50.60;;;;;;5157001;27;19945;-71
2022/03/23 11:33:13;;;;;;;;;;;16.80;46.20;;;;;;5153663;27;19923;-71
2022/03/23 11:35:46;;;;;;;;;;;16.90;50.90;;;;;;5123231;27;19923;-71
2022/03/23 11:38:12;;;;;;;;;;;16.90;47.30;;;;;;5158470;27;19923;-71
2022/03/23 11:40:40;;;;;;;;;;;16.90;48.10;;;;;;5139069;27;19927;-72
2022/03/23 11:43:08;;;;;;;;;;;17.00;46.80;;;;;;5158313;27;19977;-72
2022/03/23 11:45:37;;;;;;;;;;;17.00;44.20;;;;;;5157946;27;20335;-72
2022/03/23 11:48:13;;;;;;;;;;;17.00;44.70;;;;;;5158248;27;19930;-70
2022/03/23 11:50:51;;;;;;;;;;;16.90;46.80;;;;;;5158535;27;19923;-72
2022/03/23 11:53:26;;;;;;;;;;;17.00;45.70;;;;;;5158295;27;19930;-71
2022/03/23 11:55:53;;;;;;;;;;;17.10;46.10;;;;;;5139557;27;19927;-71
2022/03/23 11:58:22;;;;;;;;;;;17.10;45.40;;;;;;5158190;27;19927;-72
2022/03/23 12:00:54;;;;;;;;;;;17.20;42.70;;;;;;5158063;27;20424;-72
2022/03/23 12:03:38;;;;;;;;;;;17.20;45.60;;;;;;5157228;27;20377;-71
2022/03/23 12:06:29;;;;;;;;;;;17.10;45.40;;;;;;5157795;27;20270;-71
2022/03/23 12:08:58;;;;;;;;;;;17.20;47.30;;;;;;5135586;27;20350;-71
2022/03/23 12:11:33;;;;;;;;;;;17.20;46.60;;;;;;5139648;27;19977;-72
2022/03/23 12:13:59;;;;;;;;;;;17.20;45.80;;;;;;5139594;27;20329;-72
2022/03/23 12:16:46;;;;;;;;;;;17.30;46.70;;;;;;5157884;27;19976;-71
2022/03/23 12:19:32;;;;;;;;;;;17.20;45.70;;;;;;5139450;27;19968;-71
2022/03/23 12:21:58;;;;;;;;;;;17.20;45.00;;;;;;5157042;27;20053;-71
2022/03/23 12:24:41;;;;;;;;;;;17.20;43.30;;;;;;5157651;27;20369;-71
2022/03/23 12:27:09;;;;;;;;;;;17.00;43.10;;;;;;5157750;27;19934;-71
2022/03/23 12:29:38;;;;;;;;;;;17.30;43.70;;;;;;5157832;27;20037;-71
2022/03/23 12:32:08;;;;;;;;;;;17.30;47.00;;;;;;5157419;27;20419;-72
2022/03/23 12:34:35;;;;;;;;;;;17.30;43.70;;;;;;5139173;27;19923;-71
2022/03/23 12:37:08;;;;;;;;;;;17.30;42.60;;;;;;5157224;27;19923;-71
2022/03/23 12:39:36;;;;;;;;;;;17.30;44.30;;;;;;5157365;27;19927;-71
2022/03/23 12:42:16;;;;;;;;;;;17.40;43.60;;;;;;5157253;27;19927;-72
2022/03/23 12:44:44;;;;;;;;;;;17.30;43.40;;;;;;5157364;27;19946;-72
2022/03/23 12:47:18;;;;;;;;;;;17.30;43.30;;;;;;5156984;27;20293;-73
2022/03/23 12:58:08;;;;;;;;;;;17.30;44.00;;;;;;5136057;27;20101;-71
2022/03/23 13:00:42;;;;;;;;;;;17.40;45.00;;;;;;5136442;27;19923;-71
2022/03/23 13:03:07;;;;;;;;;;;17.30;43.50;;;;;;5136238;27;19927;-71
2022/03/23 13:05:34;;;;;;;;;;;17.40;43.90;;;;;;5136153;27;20356;-72
2022/03/23 13:07:59;;;;;;;;;;;17.40;46.30;;;;;;5136065;27;19927;-71
2022/03/23 13:10:25;;;;;;;;;;;17.40;44.50;;;;;;5135963;27;19924;-71
2022/03/23 13:12:51;;;;;;;;;;;17.40;44.40;;;;;;5135916;27;19946;-72
2022/03/23 13:15:19;;;;;;;;;;;17.40;45.50;;;;;;5134875;27;19923;-72
2022/03/23 13:17:46;;;;;;;;;;;17.40;45.10;;;;;;5135993;27;19971;-71
2022/03/23 13:20:16;;;;;;;;;;;17.40;46.30;;;;;;5136125;27;19931;-71
2022/03/23 13:22:42;;;;;;;;;;;17.40;44.10;;;;;;5135824;27;19975;-72
2022/03/23 13:25:09;;;;;;;;;;;17.30;44.20;;;;;;5135719;27;20013;-70
2022/03/23 13:27:37;;;;;;;;;;;17.20;44.60;;;;;;5135477;27;19924;-71
2022/03/23 13:30:03;;;;;;;;;;;17.30;44.60;;;;;;5135708;27;19923;-71
2022/03/23 13:32:32;;;;;;;;;;;17.30;44.20;;;;;;5117524;27;19930;-71
2022/03/23 13:34:59;;;;;;;;;;;17.30;43.70;;;;;;5135569;27;19923;-71
2022/03/23 13:37:25;;;;;;;;;;;17.30;46.60;;;;;;5135577;27;20030;-71
2022/03/23 13:39:50;;;;;;;;;;;17.30;45.40;;;;;;5124030;27;19935;-72
2022/03/23 13:45:07;;;;;;;;;;;17.30;46.00;;;;;;5114799;28;19931;-72
2022/03/23 13:47:33;;;;;;;;;;;17.40;46.10;;;;;;5096579;28;20399;-71
2022/03/23 13:49:59;;;;;;;;;;;17.40;44.80;;;;;;5114784;28;19924;-71
2022/03/23 13:52:26;;;;;;;;;;;17.30;44.00;;;;;;5114780;28;20010;-72
2022/03/23 13:54:52;;;;;;;;;;;17.30;43.20;;;;;;5114369;28;19924;-71
2022/03/23 13:57:18;;;;;;;;;;;16.40;43.40;;;;;;5130773;27;19931;-72
2022/03/23 13:59:46;;;;;;;;;;;17.20;44.20;;;;;;5114744;28;20018;-71
2022/03/23 14:02:16;;;;;;;;;;;17.20;44.20;;;;;;5114245;28;20275;-71
2022/03/23 14:04:42;;;;;;;;;;;17.20;44.80;;;;;;5096524;28;19977;-71
2022/03/23 14:07:07;;;;;;;;;;;17.10;44.20;;;;;;5114569;28;19927;-71
2022/03/23 14:09:37;;;;;;;;;;;17.10;44.20;;;;;;5114398;28;19927;-72
2022/03/23 14:12:08;;;;;;;;;;;17.20;44.80;;;;;;5114638;28;19928;-72
2022/03/23 14:14:35;;;;;;;;;;;17.20;46.30;;;;;;5114545;28;20382;-72
2022/03/23 14:17:08;;;;;;;;;;;17.20;45.40;;;;;;5114378;28;19930;-72
2022/03/23 14:19:41;;;;;;;;;;;17.20;44.40;;;;;;5114205;28;19978;-72
2022/03/23 14:22:09;;;;;;;;;;;17.20;45.60;;;;;;5114171;28;19923;-71
2022/03/23 14:24:37;;;;;;;;;;;17.20;46.10;;;;;;5114477;28;19924;-72
2022/03/23 14:27:11;;;;;;;;;;;17.20;45.10;;;;;;5114095;28;19977;-71
2022/03/23 14:29:38;;;;;;;;;;;17.20;44.40;;;;;;5095794;28;19924;-71
2022/03/23 14:32:04;;;;;;;;;;;17.20;44.80;;;;;;5114138;28;19924;-71
2022/03/23 14:34:31;;;;;;;;;;;17.30;45.50;;;;;;5114104;28;19985;-72
2022/03/23 14:37:03;;;;;;;;;;;17.30;45.20;;;;;;5114057;28;19928;-72
2022/03/23 14:39:37;;;;;;;;;;;17.40;45.30;;;;;;5105694;28;19924;-72
2022/03/23 14:42:06;;;;;;;;;;;17.40;45.50;;;;;;5093685;28;19924;-72
2022/03/23 14:44:34;;;;;;;;;;;17.40;43.80;;;;;;5075850;28;20355;-72
2022/03/23 14:47:00;;;;;;;;;;;17.50;44.30;;;;;;5075870;28;19931;-71
2022/03/23 14:49:34;;;;;;;;;;;17.70;44.20;;;;;;5075613;28;20302;-72
2022/03/23 14:52:00;;;;;;;;;;;17.80;43.90;;;;;;5093814;28;19975;-73
2022/03/23 14:54:25;;;;;;;;;;;17.80;45.30;;;;;;5093680;28;19971;-73
2022/03/23 14:56:51;;;;;;;;;;;17.80;44.70;;;;;;5093502;28;20401;-72